Time;durP1;ratioP1;P1;durP2;ratioP2;P2;SDS_P1;SDS_P2;PMS_P1;PMS_P2;Temp;Humidity;BMP_temperature;BMP_pressure;BME280_temperature;BME280_humidity;BME280_pressure;Samples;Min_cycle;Max_cycle;Signal;HPM_P1;HPM_P2
2023/01/24 00:01:03;;;;;;;;;;;;;;;17.25;39.23;102662.61;106144;1287;61302;-84
2023/01/24 00:03:55;;;;;;;;;;;;;;;17.24;39.15;102664.23;106126;1287;61160;-84
2023/01/24 00:06:20;;;;;;;;;;;;;;;17.24;39.25;102662.64;105908;1286;61274;-85
2023/01/24 00:08:46;;;;;;;;;;;;;;;17.24;39.18;102661.59;105785;1286;60017;-85
2023/01/24 00:11:12;;;;;;;;;;;;;;;17.24;39.21;102663.17;105763;1294;59902;-85
2023/01/24 00:13:38;;;;;;;;;;;;;;;17.24;39.23;102666.03;106029;1286;61271;-85
2023/01/24 00:16:12;;;;;;;;;;;;;;;17.24;39.15;102662.46;105709;1286;61272;-84
2023/01/24 00:18:38;;;;;;;;;;;;;;;17.24;39.28;102663.71;105695;1288;71873;-85
2023/01/24 00:21:08;;;;;;;;;;;;;;;17.24;39.21;102662.13;105878;1286;60017;-85
2023/01/24 00:23:36;;;;;;;;;;;;;;;17.24;39.19;102659.11;105693;1286;61188;-85
2023/01/24 00:26:01;;;;;;;;;;;;;;;17.24;39.28;102659.81;105696;1286;61231;-84
2023/01/24 00:28:37;;;;;;;;;;;;;;;17.23;39.22;102656.27;105705;1286;61368;-84
2023/01/24 00:31:02;;;;;;;;;;;;;;;17.23;39.22;102656.44;105667;1288;74458;-84
2023/01/24 00:33:28;;;;;;;;;;;;;;;17.23;39.19;102650.22;105677;1288;61333;-84
2023/01/24 00:35:57;;;;;;;;;;;;;;;17.23;39.20;102653.08;105836;1290;61230;-84
2023/01/24 00:38:22;;;;;;;;;;;;;;;17.22;39.23;102650.58;105828;1290;72442;-85
2023/01/24 00:40:48;;;;;;;;;;;;;;;17.22;39.23;102648.30;105650;1286;61570;-84
2023/01/24 00:43:15;;;;;;;;;;;;;;;17.22;39.14;102646.33;105802;1288;61433;-84
2023/01/24 00:45:40;;;;;;;;;;;;;;;17.21;39.13;102647.06;106100;1282;61349;-85
2023/01/24 00:48:06;;;;;;;;;;;;;;;17.22;39.20;102648.83;105982;1288;61281;-83
2023/01/24 00:50:34;;;;;;;;;;;;;;;17.21;39.16;102647.25;106207;1282;60072;-83
2023/01/24 00:53:03;;;;;;;;;;;;;;;17.21;39.03;102648.33;106251;1282;61362;-84
2023/01/24 00:55:29;;;;;;;;;;;;;;;17.20;39.14;102647.27;106092;1282;61322;-84
2023/01/24 00:57:57;;;;;;;;;;;;;;;17.20;39.11;102649.77;106063;1282;73356;-84
2023/01/24 01:00:22;;;;;;;;;;;;;;;17.20;39.16;102646.19;106082;1282;60086;-84
2023/01/24 01:03:11;;;;;;;;;;;;;;;17.20;39.19;102646.55;106135;1284;61241;-84
2023/01/24 01:05:37;;;;;;;;;;;;;;;17.20;39.17;102643.53;105704;1286;61543;-85
2023/01/24 01:08:06;;;;;;;;;;;;;;;17.20;39.21;102649.59;105679;1286;61465;-84
2023/01/24 01:10:37;;;;;;;;;;;;;;;17.20;39.21;102650.83;105678;1292;75729;-83
2023/01/24 01:13:08;;;;;;;;;;;;;;;17.19;39.22;102649.62;105685;1286;61388;-84
2023/01/24 01:15:34;;;;;;;;;;;;;;;17.19;39.19;102648.55;105572;1286;61182;-84
2023/01/24 01:18:00;;;;;;;;;;;;;;;17.19;39.24;102641.77;105548;1286;61350;-83
2023/01/24 01:20:26;;;;;;;;;;;;;;;17.19;39.26;102642.86;105594;1286;61234;-84
2023/01/24 01:22:54;;;;;;;;;;;;;;;17.19;39.23;102642.14;105868;1286;61312;-84
2023/01/24 01:25:20;;;;;;;;;;;;;;;17.19;39.19;102637.70;105677;1288;61324;-83
2023/01/24 01:27:45;;;;;;;;;;;;;;;17.18;39.19;102635.39;104877;1286;1039704;-83
2023/01/24 01:30:14;;;;;;;;;;;;;;;17.18;39.20;102634.14;105686;1286;61223;-83
2023/01/24 01:32:40;;;;;;;;;;;;;;;17.18;39.14;102637.20;105697;1286;59937;-84
2023/01/24 01:35:05;;;;;;;;;;;;;;;17.17;39.12;102636.31;105662;1286;61383;-84
2023/01/24 01:37:34;;;;;;;;;;;;;;;17.17;39.15;102633.65;105426;1291;73507;-84
2023/01/24 01:40:03;;;;;;;;;;;;;;;17.17;39.21;102634.37;105320;1292;61427;-84
2023/01/24 01:43:07;;;;;;;;;;;;;;;17.17;39.13;102634.73;105340;1287;61212;-84
2023/01/24 01:45:33;;;;;;;;;;;;;;;17.16;39.20;102640.61;105687;1286;61148;-84
2023/01/24 01:48:03;;;;;;;;;;;;;;;17.17;39.08;102640.41;105574;1286;73299;-84
2023/01/24 01:50:34;;;;;;;;;;;;;;;17.16;39.18;102639.36;105490;1291;75327;-84
2023/01/24 01:53:00;;;;;;;;;;;;;;;17.16;39.19;102637.41;105697;1286;61172;-84
2023/01/24 01:55:30;;;;;;;;;;;;;;;17.16;39.16;102637.41;105625;1287;61359;-84
2023/01/24 01:58:02;;;;;;;;;;;;;;;17.16;39.16;102635.63;105676;1288;72534;-83
2023/01/24 02:00:28;;;;;;;;;;;;;;;17.16;39.16;102630.30;105607;1293;60129;-83
2023/01/24 02:03:37;;;;;;;;;;;;;;;17.16;39.18;102632.97;105473;1289;61363;-83
2023/01/24 02:05:46;;;;;;;;;;;;;;;17.15;39.11;102636.72;105556;1288;61118;-83
2023/01/24 02:08:15;;;;;;;;;;;;;;;17.15;39.21;102642.59;105560;1292;61195;-83
2023/01/24 02:13:32;;;;;;;;;;;;;;;17.15;39.15;102634.78;105620;1293;61127;-83
2023/01/24 02:16:10;;;;;;;;;;;;;;;17.15;39.18;102639.05;105886;1286;61763;-83
2023/01/24 02:18:40;;;;;;;;;;;;;;;17.14;39.16;102640.66;105928;1283;71205;-84
2023/01/24 02:21:15;;;;;;;;;;;;;;;17.14;39.25;102636.21;105961;1288;74729;-83
2023/01/24 02:23:48;;;;;;;;;;;;;;;17.14;39.10;102633.19;106106;1284;61318;-83
2023/01/24 02:26:13;;;;;;;;;;;;;;;17.14;39.04;102638.70;106016;1288;61499;-83
2023/01/24 02:28:42;;;;;;;;;;;;;;;17.14;39.11;102638.89;106027;1285;61756;-84
2023/01/24 02:31:08;;;;;;;;;;;;;;;17.13;39.18;102634.80;105739;1283;74402;-84
2023/01/24 02:33:33;;;;;;;;;;;;;;;17.13;39.18;102634.44;106034;1283;61448;-84
2023/01/24 02:36:20;;;;;;;;;;;;;;;17.13;39.22;102631.25;106291;1282;61289;-83
2023/01/24 02:38:48;;;;;;;;;;;;;;;17.13;39.14;102627.71;106242;1282;73417;-84
2023/01/24 02:41:14;;;;;;;;;;;;;;;17.13;39.17;102624.33;106332;1283;74418;-84
2023/01/24 02:43:43;;;;;;;;;;;;;;;17.13;39.22;102626.11;106044;1283;61307;-84
2023/01/24 02:46:08;;;;;;;;;;;;;;;17.13;39.21;102625.76;106203;1282;61084;-84
2023/01/24 02:48:36;;;;;;;;;;;;;;;17.13;39.21;102630.02;106152;1287;61449;-84
2023/01/24 02:53:51;;;;;;;;;;;;;;;17.12;39.20;102625.23;106241;1282;61146;-83
2023/01/24 02:59:07;;;;;;;;;;;;;;;17.12;39.24;102627.20;106163;1283;73346;-84
2023/01/24 03:01:39;;;;;;;;;;;;;;;17.11;39.06;102629.70;106111;1283;74545;-84
2023/01/24 03:04:10;;;;;;;;;;;;;;;17.11;39.21;102637.90;106152;1283;61134;-84
2023/01/24 03:06:38;;;;;;;;;;;;;;;17.12;39.26;102633.61;106134;1282;61365;-84
2023/01/24 03:09:18;;;;;;;;;;;;;;;17.11;39.20;102630.05;106210;1285;73457;-84
2023/01/24 03:11:47;;;;;;;;;;;;;;;17.11;39.13;102630.61;106147;1282;74327;-83
2023/01/24 03:36:44;;;;;;;;;;;;;;;17.07;39.17;102605.26;106157;1282;61419;-84
2023/01/24 03:42:06;;;;;;;;;;;;;;;17.07;39.09;102609.17;106124;1284;73110;-84
2023/01/24 03:44:52;;;;;;;;;;;;;;;17.06;39.03;102611.31;106205;1284;73314;-84
2023/01/24 03:47:17;;;;;;;;;;;;;;;17.06;39.17;102605.99;106124;1282;61259;-84
2023/01/24 03:52:40;;;;;;;;;;;;;;;17.06;39.18;102608.48;106137;1282;74030;-84
2023/01/24 03:55:07;;;;;;;;;;;;;;;17.06;39.18;102612.41;106103;1282;61333;-84
2023/01/24 03:57:33;;;;;;;;;;;;;;;17.06;39.13;102612.59;106146;1283;61230;-83
2023/01/24 04:00:02;;;;;;;;;;;;;;;17.06;39.08;102612.94;106005;1282;61234;-83
2023/01/24 04:02:33;;;;;;;;;;;;;;;17.06;39.06;102614.90;106085;1287;71297;-84
2023/01/24 04:05:24;;;;;;;;;;;;;;;;;;;;;
2023/01/24 04:07:53;;;;;;;;;;;;;;;17.05;39.01;102619.73;106108;1282;61180;-84
2023/01/24 04:10:19;;;;;;;;;;;;;;;17.04;39.08;102619.20;106106;1282;61431;-83
2023/01/24 04:12:51;;;;;;;;;;;;;;;17.05;39.07;102623.29;106124;1282;61262;-83
2023/01/24 04:15:19;;;;;;;;;;;;;;;17.04;39.10;102621.36;106124;1282;74578;-83
2023/01/24 04:17:52;;;;;;;;;;;;;;;17.04;39.09;102615.11;106220;1283;61176;-84
2023/01/24 04:20:18;;;;;;;;;;;;;;;17.04;39.11;102617.80;105991;1282;61322;-84
2023/01/24 04:22:47;;;;;;;;;;;;;;;17.03;39.06;102619.06;106126;1284;61321;-83
2023/01/24 04:25:14;;;;;;;;;;;;;;;17.04;39.07;102621.17;106013;1282;74488;-84
2023/01/24 04:27:44;;;;;;;;;;;;;;;17.03;39.23;102626.00;106141;1282;61211;-84
2023/01/24 04:30:16;;;;;;;;;;;;;;;17.03;39.06;102623.15;106118;1282;61135;-84
2023/01/24 04:32:45;;;;;;;;;;;;;;;17.03;39.04;102628.49;106168;1282;73210;-84
2023/01/24 04:35:14;;;;;;;;;;;;;;;17.02;39.06;102627.77;106215;1286;74379;-84
2023/01/24 04:37:40;;;;;;;;;;;;;;;17.02;39.08;102629.21;106013;1283;61834;-84
2023/01/24 04:40:07;;;;;;;;;;;;;;;17.02;39.13;102628.33;106219;1282;61295;-84
2023/01/24 04:42:32;;;;;;;;;;;;;;;17.02;39.09;102628.15;106146;1282;61301;-84
2023/01/24 04:45:07;;;;;;;;;;;;;;;17.02;39.16;102627.42;106236;1282;61238;-84
2023/01/24 04:47:36;;;;;;;;;;;;;;;17.02;38.94;102631.70;106150;1285;61115;-83
2023/01/24 04:50:04;;;;;;;;;;;;;;;17.02;38.98;102632.23;106129;1282;61232;-83
2023/01/24 04:52:29;;;;;;;;;;;;;;;17.02;38.95;102637.06;106230;1282;72217;-83
2023/01/24 04:54:55;;;;;;;;;;;;;;;17.01;39.06;102644.02;106020;1288;61288;-83
2023/01/24 04:57:23;;;;;;;;;;;;;;;17.01;39.14;102642.41;106116;1287;61291;-83
2023/01/24 04:59:52;;;;;;;;;;;;;;;17.01;39.05;102647.75;106127;1283;61299;-84
2023/01/24 05:02:18;;;;;;;;;;;;;;;17.01;39.02;102646.15;106170;1282;61281;-83
2023/01/24 05:04:44;;;;;;;;;;;;;;;17.00;38.97;102645.10;106053;1282;61323;-84
2023/01/24 05:07:09;;;;;;;;;;;;;;;17.00;38.97;102647.41;106259;1282;61305;-84
2023/01/24 05:09:35;;;;;;;;;;;;;;;17.00;39.02;102652.75;106328;1282;61296;-84
2023/01/24 05:12:00;;;;;;;;;;;;;;;17.00;39.06;102656.66;106345;1282;61366;-83
2023/01/24 05:14:27;;;;;;;;;;;;;;;17.00;39.06;102661.46;105986;1282;72501;-84
2023/01/24 05:16:53;;;;;;;;;;;;;;;17.00;38.95;102668.05;106019;1282;74533;-84
2023/01/24 05:19:19;;;;;;;;;;;;;;;16.99;39.03;102673.22;106126;1282;61371;-83
2023/01/24 05:21:44;;;;;;;;;;;;;;;16.99;38.98;102674.64;106131;1282;61288;-84
2023/01/24 05:24:35;;;;;;;;;;;;;;;16.99;38.98;102675.91;106126;1287;71326;-84
2023/01/24 05:27:01;;;;;;;;;;;;;;;16.99;39.02;102677.14;106208;1285;74489;-84
2023/01/24 05:29:29;;;;;;;;;;;;;;;16.99;39.07;102675.56;105978;1283;61321;-84
2023/01/24 05:31:55;;;;;;;;;;;;;;;16.99;38.97;102676.80;106052;1284;59988;-83
2023/01/24 05:34:25;;;;;;;;;;;;;;;16.98;38.97;102677.34;106003;1283;73332;-83
2023/01/24 05:36:51;;;;;;;;;;;;;;;16.98;38.91;102676.28;106049;1283;75423;-83
2023/01/24 05:39:17;;;;;;;;;;;;;;;16.98;38.99;102677.54;105916;1283;61278;-84
2023/01/24 05:41:45;;;;;;;;;;;;;;;16.97;38.96;102672.75;105994;1283;61439;-84
2023/01/24 05:44:14;;;;;;;;;;;;;;;16.97;39.02;102674.89;106003;1285;72526;-83
2023/01/24 05:46:43;;;;;;;;;;;;;;;16.97;38.99;102674.88;105870;1283;74948;-83
2023/01/24 05:49:10;;;;;;;;;;;;;;;16.97;38.97;102672.21;106009;1283;61150;-83
2023/01/24 05:51:35;;;;;;;;;;;;;;;16.97;39.02;102675.95;106015;1284;61269;-83
2023/01/24 05:54:06;;;;;;;;;;;;;;;16.97;38.94;102674.72;106045;1283;61267;-83
2023/01/24 05:56:34;;;;;;;;;;;;;;;16.96;38.91;102677.21;106079;1285;74509;-84
2023/01/24 05:59:03;;;;;;;;;;;;;;;16.96;38.93;102682.02;106108;1283;61215;-84
2023/01/24 06:01:30;;;;;;;;;;;;;;;16.96;38.91;102689.31;106069;1283;61232;-84
2023/01/24 06:03:55;;;;;;;;;;;;;;;16.96;38.88;102686.47;106143;1287;72580;-84
2023/01/24 06:06:41;;;;;;;;;;;;;;;16.96;38.95;102684.33;106155;1284;74458;-84
2023/01/24 06:09:08;;;;;;;;;;;;;;;16.96;38.86;102688.26;106146;1283;61157;-84
2023/01/24 06:11:33;;;;;;;;;;;;;;;16.97;38.93;102688.42;105962;1283;61154;-84
2023/01/24 06:14:02;;;;;;;;;;;;;;;16.96;38.88;102693.94;106000;1285;61793;-83
2023/01/24 06:16:28;;;;;;;;;;;;;;;16.96;38.98;102694.29;106035;1283;74223;-83
2023/01/24 06:18:53;;;;;;;;;;;;;;;16.97;39.00;102698.90;106104;1285;59266;-84
2023/01/24 06:21:47;;;;;;;;;;;;;;;16.96;38.92;102701.76;106023;1283;61193;-84
2023/01/24 06:24:26;;;;;;;;;;;;;;;16.96;38.86;102702.47;105713;1285;72534;-83
2023/01/24 06:26:52;;;;;;;;;;;;;;;16.97;38.96;102705.31;105720;1286;75547;-84
2023/01/24 06:29:29;;;;;;;;;;;;;;;16.96;38.95;102706.21;105728;1285;61123;-84
2023/01/24 06:32:15;;;;;;;;;;;;;;;16.96;38.90;102707.11;105719;1285;61695;-83
2023/01/24 06:34:53;;;;;;;;;;;;;;;16.96;38.92;102709.41;105323;1291;74559;-84
2023/01/24 06:37:33;;;;;;;;;;;;;;;16.95;38.79;102709.42;105324;1291;74548;-85
2023/01/24 06:40:02;;;;;;;;;;;;;;;16.95;38.90;102712.27;105314;1291;61280;-85
2023/01/24 06:42:30;;;;;;;;;;;;;;;16.96;38.86;102712.62;105049;1298;61297;-84
2023/01/24 06:44:56;;;;;;;;;;;;;;;16.96;38.84;102714.23;104893;1296;73601;-84
2023/01/24 06:47:23;;;;;;;;;;;;;;;16.95;38.84;102710.84;105029;1298;61293;-84
2023/01/24 06:50:01;;;;;;;;;;;;;;;16.95;38.84;102711.40;105011;1296;61107;-84
2023/01/24 06:52:27;;;;;;;;;;;;;;;16.95;38.90;102711.40;104980;1296;61118;-84
2023/01/24 06:54:52;;;;;;;;;;;;;;;16.95;38.75;102708.73;105035;1293;61365;-84
2023/01/24 06:57:23;;;;;;;;;;;;;;;16.95;38.88;102711.23;104942;1294;74467;-84
2023/01/24 06:59:49;;;;;;;;;;;;;;;16.95;38.80;102711.40;105089;1293;61256;-84
2023/01/24 07:02:14;;;;;;;;;;;;;;;16.94;38.93;102713.54;105107;1294;61383;-85
2023/01/24 07:04:44;;;;;;;;;;;;;;;16.94;38.83;102715.50;105024;1293;61457;-84
2023/01/24 07:07:09;;;;;;;;;;;;;;;16.94;38.81;102716.39;104944;1293;74248;-84
2023/01/24 07:09:37;;;;;;;;;;;;;;;16.95;38.79;102723.85;105191;1293;61123;-84
2023/01/24 07:12:03;;;;;;;;;;;;;;;16.95;38.81;102728.31;105197;1287;61272;-84
2023/01/24 07:14:28;;;;;;;;;;;;;;;16.94;38.84;102729.02;105528;1293;61300;-84
2023/01/24 07:17:01;;;;;;;;;;;;;;;16.94;38.79;102731.14;105574;1287;74374;-83
2023/01/24 07:19:26;;;;;;;;;;;;;;;16.94;38.88;102729.20;105541;1283;61293;-83
2023/01/24 07:21:53;;;;;;;;;;;;;;;16.94;38.88;102726.36;106016;1283;61428;-84
2023/01/24 07:24:20;;;;;;;;;;;;;;;16.94;38.92;102727.96;106027;1288;61685;-83
2023/01/24 07:26:48;;;;;;;;;;;;;;;16.93;38.71;102724.77;105876;1283;75384;-83
2023/01/24 07:29:13;;;;;;;;;;;;;;;16.93;38.80;102727.80;106086;1283;59947;-83
2023/01/24 07:31:39;;;;;;;;;;;;;;;16.94;38.77;102727.26;106096;1283;61363;-84
2023/01/24 07:34:05;;;;;;;;;;;;;;;16.94;38.89;102730.45;106020;1283;61359;-84
2023/01/24 07:36:30;;;;;;;;;;;;;;;16.93;38.78;102730.29;106162;1283;61275;-84
2023/01/24 07:38:56;;;;;;;;;;;;;;;16.94;38.80;102734.36;106181;1283;61291;-84
2023/01/24 07:41:23;;;;;;;;;;;;;;;16.93;38.82;102729.05;106059;1283;61238;-84
2023/01/24 07:43:56;;;;;;;;;;;;;;;16.93;38.78;102728.33;105883;1283;61137;-84
2023/01/24 07:46:22;;;;;;;;;;;;;;;16.93;38.77;102730.11;106065;1283;73662;-84
2023/01/24 07:48:50;;;;;;;;;;;;;;;16.93;38.80;102727.27;106024;1284;74445;-84
2023/01/24 07:51:16;;;;;;;;;;;;;;;16.93;38.84;102722.63;106005;1283;61308;-84
2023/01/24 07:53:50;;;;;;;;;;;;;;;16.92;38.78;102729.41;106080;1283;61157;-84
2023/01/24 07:56:17;;;;;;;;;;;;;;;16.93;38.78;102732.25;106090;1283;72651;-84
2023/01/24 07:58:45;;;;;;;;;;;;;;;16.93;38.82;102731.54;105860;1283;61349;-84
2023/01/24 08:01:16;;;;;;;;;;;;;;;16.92;38.76;102732.25;105888;1285;61656;-84
2023/01/24 08:03:53;;;;;;;;;;;;;;;16.92;38.72;102731.55;106048;1287;61274;-84
2023/01/24 08:06:23;;;;;;;;;;;;;;;16.92;38.87;102733.51;106092;1282;72490;-84
2023/01/24 08:08:52;;;;;;;;;;;;;;;16.91;38.79;102731.57;106103;1283;74524;-84
2023/01/24 08:11:21;;;;;;;;;;;;;;;16.91;38.77;102736.02;106219;1282;61269;-83
2023/01/24 08:13:49;;;;;;;;;;;;;;;16.91;38.81;102739.75;106189;1282;61170;-83
2023/01/24 08:16:23;;;;;;;;;;;;;;;16.92;38.71;102740.98;106229;1282;73460;-83
2023/01/24 08:18:50;;;;;;;;;;;;;;;16.91;38.78;102737.81;106108;1282;74275;-84
2023/01/24 08:21:16;;;;;;;;;;;;;;;16.90;38.74;102739.78;106254;1281;61380;-83
2023/01/24 08:23:41;;;;;;;;;;;;;;;16.90;38.75;102737.30;106344;1281;61366;-83
2023/01/24 08:26:07;;;;;;;;;;;;;;;16.90;38.71;102737.65;106107;1282;61246;-83
2023/01/24 08:28:40;;;;;;;;;;;;;;;16.90;38.85;102735.52;106190;1281;61706;-84
2023/01/24 08:31:05;;;;;;;;;;;;;;;16.89;38.90;102733.58;106312;1281;61266;-84
2023/01/24 08:33:37;;;;;;;;;;;;;;;16.89;38.77;102736.40;106094;1282;61285;-83
2023/01/24 08:36:03;;;;;;;;;;;;;;;16.89;38.74;102736.59;106223;1285;71550;-85
2023/01/24 08:38:32;;;;;;;;;;;;;;;16.89;38.69;102736.05;106192;1282;61387;-85
2023/01/24 08:40:58;;;;;;;;;;;;;;;16.89;38.70;102736.93;106209;1282;61180;-84
2023/01/24 08:43:23;;;;;;;;;;;;;;;16.88;38.76;102736.77;106231;1282;61278;-83
2023/01/24 08:46:01;;;;;;;;;;;;;;;16.88;38.70;102738.00;106119;1282;61967;-84
2023/01/24 08:48:27;;;;;;;;;;;;;;;16.88;38.72;102741.93;106153;1282;75419;-83
2023/01/24 08:50:56;;;;;;;;;;;;;;;16.88;38.72;102744.06;106223;1282;61180;-84
2023/01/24 08:53:23;;;;;;;;;;;;;;;16.88;38.74;102732.69;106108;1281;61392;-83
2023/01/24 08:55:49;;;;;;;;;;;;;;;16.88;38.74;102729.48;106193;1282;72256;-83
2023/01/24 08:58:15;;;;;;;;;;;;;;;16.88;38.75;102727.02;106109;1282;74166;-84
2023/01/24 09:00:48;;;;;;;;;;;;;;;16.88;38.70;102724.86;106205;1282;61336;-83
2023/01/24 09:03:18;;;;;;;;;;;;;;;16.87;38.73;102725.94;106240;1282;61190;-83
2023/01/24 09:05:46;;;;;;;;;;;;;;;16.87;38.67;102724.88;106208;1282;73750;-83
2023/01/24 09:08:13;;;;;;;;;;;;;;;16.87;38.71;102719.38;106202;1281;74514;-83
2023/01/24 09:10:39;;;;;;;;;;;;;;;16.87;38.74;102722.21;106245;1281;61241;-83
2023/01/24 09:13:09;;;;;;;;;;;;;;;16.87;38.66;102723.64;106360;1281;61314;-84
2023/01/24 09:15:37;;;;;;;;;;;;;;;16.86;38.70;102722.75;106127;1282;72278;-84
2023/01/24 09:18:03;;;;;;;;;;;;;;;16.86;38.78;102726.14;106242;1281;73497;-83
2023/01/24 09:20:32;;;;;;;;;;;;;;;16.86;38.68;102718.84;106121;1282;61231;-84
2023/01/24 09:22:58;;;;;;;;;;;;;;;16.86;38.69;102720.27;106153;1282;61302;-84
2023/01/24 09:25:27;;;;;;;;;;;;;;;16.85;38.74;102719.22;106200;1282;61365;-84
2023/01/24 09:27:55;;;;;;;;;;;;;;;16.85;38.78;102720.65;106201;1285;75375;-84
2023/01/24 09:30:31;;;;;;;;;;;;;;;16.85;38.77;102717.27;106261;1282;61764;-84
2023/01/24 09:32:56;;;;;;;;;;;;;;;16.85;38.75;102717.80;106239;1281;61225;-84
2023/01/24 09:35:24;;;;;;;;;;;;;;;16.84;38.76;102719.98;106103;1282;73418;-84
2023/01/24 09:37:52;;;;;;;;;;;;;;;16.84;38.67;102720.14;106336;1283;61247;-84
2023/01/24 09:40:19;;;;;;;;;;;;;;;16.84;38.66;102718.19;106288;1281;61116;-83
2023/01/24 09:42:48;;;;;;;;;;;;;;;16.84;38.71;102714.82;106311;1282;61161;-83
2023/01/24 09:45:24;;;;;;;;;;;;;;;16.83;38.79;102721.95;106050;1282;73282;-84
2023/01/24 09:48:09;;;;;;;;;;;;;;;16.84;38.76;102716.77;106043;1282;76012;-84
2023/01/24 09:50:59;;;;;;;;;;;;;;;16.84;38.71;102715.00;106244;1282;61135;-84
2023/01/24 09:53:29;;;;;;;;;;;;;;;16.84;38.72;102710.55;106233;1282;61250;-84
2023/01/24 09:55:55;;;;;;;;;;;;;;;16.83;38.63;102708.08;106229;1282;72315;-84
2023/01/24 09:58:31;;;;;;;;;;;;;;;16.83;38.67;102707.18;106161;1282;61208;-84
2023/01/24 10:01:05;;;;;;;;;;;;;;;16.84;38.69;102706.65;106239;1282;61065;-84
2023/01/24 10:03:30;;;;;;;;;;;;;;;16.84;38.79;102706.11;106380;1282;59382;-84
2023/01/24 10:05:58;;;;;;;;;;;;;;;16.84;38.78;102704.34;106303;1282;61268;-84
2023/01/24 10:08:34;;;;;;;;;;;;;;;16.83;38.77;102701.67;106234;1282;74575;-84
2023/01/24 10:11:18;;;;;;;;;;;;;;;16.84;38.73;102699.90;106211;1282;61183;-84
2023/01/24 10:13:57;;;;;;;;;;;;;;;16.84;38.81;102698.48;106211;1282;60066;-84
2023/01/24 10:16:42;;;;;;;;;;;;;;;16.84;38.67;102700.95;106001;1282;72504;-84
2023/01/24 10:19:23;;;;;;;;;;;;;;;16.84;38.83;102697.22;106207;1282;74465;-83
2023/01/24 10:22:11;;;;;;;;;;;;;;;16.83;38.78;102693.32;106207;1282;61269;-83
2023/01/24 10:24:39;;;;;;;;;;;;;;;16.83;38.73;102690.84;106210;1282;61206;-83
2023/01/24 10:27:15;;;;;;;;;;;;;;;16.82;38.74;102683.91;106097;1282;72493;-84
2023/01/24 10:29:41;;;;;;;;;;;;;;;16.82;38.72;102682.85;106091;1282;74304;-84
2023/01/24 10:32:16;;;;;;;;;;;;;;;16.82;38.61;102680.00;106036;1282;61357;-84
2023/01/24 10:34:43;;;;;;;;;;;;;;;16.81;38.73;102680.02;106034;1282;61150;-84
2023/01/24 10:37:29;;;;;;;;;;;;;;;16.81;38.66;102680.39;105959;1282;73241;-84
2023/01/24 10:39:58;;;;;;;;;;;;;;;16.81;38.69;102673.81;105663;1287;74385;-84
2023/01/24 10:42:46;;;;;;;;;;;;;;;16.80;38.63;102675.25;105534;1288;61185;-84
2023/01/24 10:45:29;;;;;;;;;;;;;;;16.81;38.67;102672.57;105108;1294;61486;-84
2023/01/24 10:47:59;;;;;;;;;;;;;;;16.80;38.64;102671.52;105147;1294;72220;-83
2023/01/24 10:50:35;;;;;;;;;;;;;;;16.80;38.63;102670.62;105137;1297;75521;-84
2023/01/24 10:53:23;;;;;;;;;;;;;;;16.80;38.65;102665.30;105110;1294;59944;-84
2023/01/24 10:56:02;;;;;;;;;;;;;;;16.80;38.65;102667.06;105082;1294;61373;-84
2023/01/24 10:58:46;;;;;;;;;;;;;;;16.79;38.72;102662.28;105067;1294;72553;-84
2023/01/24 11:01:20;;;;;;;;;;;;;;;16.79;38.63;102664.42;105127;1294;74566;-84
2023/01/24 11:03:47;;;;;;;;;;;;;;;16.78;38.62;102659.81;105167;1293;61925;-84
2023/01/24 11:06:23;;;;;;;;;;;;;;;16.79;38.65;102659.99;105216;1293;61309;-83
2023/01/24 11:09:01;;;;;;;;;;;;;;;16.78;38.69;102654.31;105096;1294;72576;-84
2023/01/24 11:11:30;;;;;;;;;;;;;;;16.78;38.62;102653.80;105065;1294;75046;-83
2023/01/24 11:13:56;;;;;;;;;;;;;;;16.78;38.70;102655.03;105066;1295;61289;-86
2023/01/24 11:16:34;;;;;;;;;;;;;;;16.77;38.59;102647.05;105176;1293;61200;-85
2023/01/24 11:19:01;;;;;;;;;;;;;;;16.77;38.60;102646.87;105577;1291;73481;-83
2023/01/24 11:21:27;;;;;;;;;;;;;;;16.77;38.55;102647.05;105453;1291;75559;-83
2023/01/24 11:23:59;;;;;;;;;;;;;;;16.78;38.66;102648.29;106191;1285;61325;-83
2023/01/24 11:26:29;;;;;;;;;;;;;;;16.79;38.66;102644.69;106303;1282;60236;-84
2023/01/24 11:29:00;;;;;;;;;;;;;;;16.80;38.75;102641.64;106206;1283;72470;-84
2023/01/24 11:31:27;;;;;;;;;;;;;;;16.82;38.77;102642.13;106271;1282;74418;-84
2023/01/24 11:34:08;;;;;;;;;;;;;;;16.85;38.69;102645.27;106093;1282;61960;-83
2023/01/24 11:36:41;;;;;;;;;;;;;;;16.87;38.68;102642.36;106259;1282;61147;-83
2023/01/24 11:39:25;;;;;;;;;;;;;;;16.90;38.78;102638.58;106136;1282;72367;-83
2023/01/24 11:41:57;;;;;;;;;;;;;;;16.95;38.66;102640.41;106238;1282;75418;-84
2023/01/24 11:44:32;;;;;;;;;;;;;;;16.99;38.66;102638.02;106143;1283;60792;-83
2023/01/24 11:47:11;;;;;;;;;;;;;;;17.03;38.53;102637.38;106250;1282;61317;-85
2023/01/24 11:49:52;;;;;;;;;;;;;;;17.07;38.60;102632.28;106204;1282;73221;-84
2023/01/24 11:52:28;;;;;;;;;;;;;;;17.12;38.50;102628.81;106097;1282;74508;-84
2023/01/24 11:55:07;;;;;;;;;;;;;;;17.16;38.50;102631.55;106121;1282;61205;-84
2023/01/24 11:57:43;;;;;;;;;;;;;;;17.20;38.57;102631.80;106210;1282;61267;-83
2023/01/24 12:00:35;;;;;;;;;;;;;;;17.23;38.60;102627.10;106231;1282;73643;-83
2023/01/24 12:03:07;;;;;;;;;;;;;;;17.28;38.59;102633.91;106205;1282;74473;-84
2023/01/24 12:05:43;;;;;;;;;;;;;;;17.31;38.52;102632.39;106239;1282;61282;-84
2023/01/24 12:08:13;;;;;;;;;;;;;;;17.34;38.59;102634.81;106234;1282;61099;-84
2023/01/24 12:11:00;;;;;;;;;;;;;;;17.37;38.66;102635.27;106214;1282;72475;-84
2023/01/24 12:13:33;;;;;;;;;;;;;;;17.40;38.63;102632.67;106006;1282;73506;-84
2023/01/24 12:16:14;;;;;;;;;;;;;;;17.42;38.56;102625.69;106247;1282;61071;-84
2023/01/24 12:18:45;;;;;;;;;;;;;;;17.46;38.59;102629.33;106236;1282;61397;-84
2023/01/24 12:21:11;;;;;;;;;;;;;;;17.48;38.51;102625.52;106192;1282;73444;-84
2023/01/24 12:23:46;;;;;;;;;;;;;;;17.50;38.54;102623.16;105995;1282;61395;-84
2023/01/24 12:26:18;;;;;;;;;;;;;;;17.52;38.69;102622.21;106266;1282;61230;-84
2023/01/24 12:28:53;;;;;;;;;;;;;;;17.54;38.65;102622.88;106271;1282;61159;-84
2023/01/24 12:31:22;;;;;;;;;;;;;;;17.56;38.65;102625.33;106259;1282;72667;-84
2023/01/24 12:33:56;;;;;;;;;;;;;;;17.58;38.60;102627.21;106215;1282;74444;-83
2023/01/24 12:36:30;;;;;;;;;;;;;;;17.60;38.68;102629.83;106144;1282;61149;-84
2023/01/24 12:38:59;;;;;;;;;;;;;;;17.62;38.74;102631.20;106095;1282;61166;-83
2023/01/24 12:41:25;;;;;;;;;;;;;;;17.64;38.78;102632.59;106027;1282;72543;-84
2023/01/24 12:44:03;;;;;;;;;;;;;;;17.65;38.64;102632.90;106191;1282;61275;-84
2023/01/24 12:46:33;;;;;;;;;;;;;;;17.67;38.66;102636.05;106233;1282;61143;-84
2023/01/24 12:48:59;;;;;;;;;;;;;;;17.68;38.74;102634.96;106004;1282;61211;-84
2023/01/24 12:51:29;;;;;;;;;;;;;;;17.69;38.76;102634.56;106164;1282;61359;-84
2023/01/24 12:54:10;;;;;;;;;;;;;;;17.70;38.64;102630.45;106014;1282;74302;-83
2023/01/24 12:57:08;;;;;;;;;;;;;;;17.72;38.73;102629.68;106039;1283;61386;-83
2023/01/24 12:59:34;;;;;;;;;;;;;;;17.74;38.86;102625.71;105470;1289;61315;-83
2023/01/24 13:02:06;;;;;;;;;;;;;;;17.74;38.87;102622.86;105386;1291;61488;-83
2023/01/24 13:04:43;;;;;;;;;;;;;;;17.75;38.86;102621.75;105358;1290;74560;-83
2023/01/24 13:07:18;;;;;;;;;;;;;;;17.76;38.91;102622.98;105461;1289;61223;-83
2023/01/24 13:09:49;;;;;;;;;;;;;;;17.78;38.86;102622.94;105484;1290;61243;-83
2023/01/24 13:12:19;;;;;;;;;;;;;;;17.79;38.85;102622.19;105439;1289;72716;-83
2023/01/24 13:14:57;;;;;;;;;;;;;;;17.80;38.77;102627.33;105387;1290;74576;-83
2023/01/24 13:17:44;;;;;;;;;;;;;;;17.81;38.98;102626.59;105465;1289;61165;-83
2023/01/24 13:20:21;;;;;;;;;;;;;;;17.81;38.88;102624.63;105451;1289;61052;-83
2023/01/24 13:23:07;;;;;;;;;;;;;;;17.82;38.95;102626.73;105446;1289;73322;-84